Time;durP1;ratioP1;P1;durP2;ratioP2;P2;SDS_P1;SDS_P2;PMS_P1;PMS_P2;Temp;Humidity;BMP_temperature;BMP_pressure;BME280_temperature;BME280_humidity;BME280_pressure;Samples;Min_cycle;Max_cycle;Signal;HPM_P1;HPM_P2
2022/06/12 00:01:03;;;;;;;;;57.50;49.50;;;;;;;;5034109;28;11182;-76
2022/06/12 00:03:32;;;;;;;;;57.75;49.50;;;;;;;;5037609;28;11507;-75
2022/06/12 00:06:02;;;;;;;;;40.25;37.75;;;;;;;;5029125;28;11553;-75
2022/06/12 00:08:32;;;;;;;;;25.25;25.00;;;;;;;;5035709;28;10973;-75
2022/06/12 00:11:01;;;;;;;;;1.00;1.00;;;;;;;;5034533;28;10920;-76
2022/06/12 00:13:31;;;;;;;;;1.50;0.25;;;;;;;;5035138;28;9555;-75
2022/06/12 00:15:59;;;;;;;;;0.00;0.00;;;;;;;;5033105;28;8889;-80
2022/06/12 00:18:27;;;;;;;;;0.50;0.50;;;;;;;;5032807;28;9537;-75
2022/06/12 00:23:38;;;;;;;;;0.00;0.00;;;;;;;;5034475;28;8867;-75
2022/06/12 00:26:06;;;;;;;;;0.00;0.00;;;;;;;;5031830;28;9018;-75
2022/06/12 00:28:33;;;;;;;;;2.00;0.00;;;;;;;;5032274;28;8925;-75
2022/06/12 00:31:01;;;;;;;;;0.00;0.00;;;;;;;;5034815;28;8862;-75
2022/06/12 00:33:29;;;;;;;;;0.00;0.00;;;;;;;;5036621;28;8916;-78
2022/06/12 00:35:56;;;;;;;;;1.33;0.33;;;;;;;;5038160;28;8874;-75
2022/06/12 00:38:23;;;;;;;;;2.00;0.00;;;;;;;;5038684;28;8956;-78
2022/06/12 00:40:52;;;;;;;;;2.00;0.00;;;;;;;;5033594;28;10239;-76
2022/06/12 00:43:23;;;;;;;;;2.00;0.00;;;;;;;;5034248;28;10738;-75
2022/06/12 00:45:53;;;;;;;;;1.00;1.00;;;;;;;;5033343;28;9067;-75
2022/06/12 00:48:23;;;;;;;;;1.00;0.00;;;;;;;;5036437;28;9142;-75
2022/06/12 00:50:58;;;;;;;;;0.00;0.00;;;;;;;;5037637;28;9075;-77
2022/06/12 00:53:28;;;;;;;;;0.00;0.00;;;;;;;;5033317;28;8987;-75
2022/06/12 00:56:04;;;;;;;;;1.00;1.00;;;;;;;;5039191;28;9244;-75
2022/06/12 00:58:34;;;;;;;;;0.00;0.00;;;;;;;;5034810;28;9252;-74
2022/06/12 01:01:03;;;;;;;;;0.67;0.67;;;;;;;;5031466;28;8959;-75
2022/06/12 01:03:31;;;;;;;;;3.00;1.00;;;;;;;;5034540;28;9145;-75
2022/06/12 01:08:44;;;;;;;;;0.67;0.67;;;;;;;;5030653;28;9774;-74
2022/06/12 01:11:15;;;;;;;;;0.67;0.67;;;;;;;;5031971;28;9884;-77
2022/06/12 01:13:45;;;;;;;;;0.00;0.00;;;;;;;;5036430;28;9172;-76
2022/06/12 01:16:15;;;;;;;;;1.33;0.00;;;;;;;;5035113;28;9114;-76
2022/06/12 01:18:48;;;;;;;;;0.00;0.00;;;;;;;;5031001;28;9226;-74
2022/06/12 01:21:39;;;;;;;;;0.00;0.00;;;;;;;;5035799;28;9262;-82
2022/06/12 01:24:25;;;;;;;;;0.00;0.00;;;;;;;;5037400;28;9294;-79
2022/06/12 01:27:12;;;;;;;;;0.00;0.00;;;;;;;;5042479;28;9502;-81
2022/06/12 01:29:45;;;;;;;;;1.00;1.00;;;;;;;;5035341;28;9380;-81
2022/06/12 01:32:16;;;;;;;;;0.00;0.00;;;;;;;;5040077;28;9291;-81
2022/06/12 01:34:48;;;;;;;;;1.67;1.00;;;;;;;;5035174;28;9269;-82
2022/06/12 01:37:29;;;;;;;;;1.00;1.00;;;;;;;;5037293;28;9326;-76
2022/06/12 01:40:08;;;;;;;;;2.00;2.00;;;;;;;;5037355;28;9269;-76
2022/06/12 01:42:40;;;;;;;;;0.00;0.00;;;;;;;;5030812;28;9436;-75
2022/06/12 01:45:29;;;;;;;;;1.00;1.00;;;;;;;;5037571;28;9303;-75
2022/06/12 01:48:02;;;;;;;;;2.00;2.00;;;;;;;;5029704;28;9352;-76
2022/06/12 01:50:36;;;;;;;;;1.00;1.00;;;;;;;;5033178;28;9351;-78
2022/06/12 01:53:10;;;;;;;;;1.00;1.00;;;;;;;;5029646;28;9366;-78
2022/06/12 01:55:44;;;;;;;;;1.33;1.33;;;;;;;;5034656;28;9218;-75
2022/06/12 01:58:16;;;;;;;;;0.00;0.00;;;;;;;;5035402;28;9456;-75
2022/06/12 02:00:50;;;;;;;;;2.00;1.00;;;;;;;;5031259;28;9270;-77
2022/06/12 02:03:25;;;;;;;;;2.00;2.00;;;;;;;;5038844;28;9339;-75
2022/06/12 02:06:03;;;;;;;;;2.25;2.00;;;;;;;;5034937;28;9377;-75
2022/06/12 02:08:37;;;;;;;;;3.75;2.00;;;;;;;;5034874;28;9569;-75
2022/06/12 02:13:56;;;;;;;;;2.00;2.00;;;;;;;;5030299;28;9432;-75
2022/06/12 02:16:29;;;;;;;;;3.50;2.50;;;;;;;;5035892;28;9531;-76
2022/06/12 02:18:58;;;;;;;;;2.00;2.00;;;;;;;;5030932;28;9483;-75
2022/06/12 02:21:29;;;;;;;;;1.00;1.00;;;;;;;;5033871;28;9603;-75
2022/06/12 02:24:02;;;;;;;;;2.00;2.00;;;;;;;;5037779;28;9640;-75
2022/06/12 02:26:34;;;;;;;;;3.00;3.00;;;;;;;;5039779;28;9491;-76
2022/06/12 02:29:04;;;;;;;;;7.50;4.00;;;;;;;;5038960;28;11034;-75
2022/06/12 02:31:36;;;;;;;;;2.50;2.50;;;;;;;;5034536;28;9875;-76
2022/06/12 02:34:07;;;;;;;;;6.75;4.25;;;;;;;;5030495;28;9625;-76
2022/06/12 02:36:37;;;;;;;;;5.50;3.25;;;;;;;;5033857;28;9794;-74
2022/06/12 02:39:08;;;;;;;;;3.75;2.00;;;;;;;;5032590;28;9667;-78
2022/06/12 02:41:41;;;;;;;;;2.75;2.75;;;;;;;;5034554;28;9805;-80
2022/06/12 02:44:13;;;;;;;;;4.00;4.00;;;;;;;;5034410;28;9659;-80
2022/06/12 02:46:47;;;;;;;;;3.00;3.00;;;;;;;;5026417;28;9818;-81
2022/06/12 02:49:15;;;;;;;;;4.00;4.00;;;;;;;;5038376;28;9707;-82
2022/06/12 02:51:50;;;;;;;;;6.00;6.00;;;;;;;;5029798;28;9879;-81
2022/06/12 02:54:23;;;;;;;;;4.00;4.00;;;;;;;;5036415;28;9779;-82
2022/06/12 02:57:04;;;;;;;;;9.50;9.50;;;;;;;;5033588;28;9897;-75
2022/06/12 02:59:42;;;;;;;;;4.50;4.50;;;;;;;;5032402;28;9923;-75
2022/06/12 03:02:17;;;;;;;;;9.25;8.75;;;;;;;;5027505;28;9862;-77
2022/06/12 03:04:57;;;;;;;;;10.25;9.25;;;;;;;;5036683;28;9990;-72
2022/06/12 03:07:25;;;;;;;;;10.25;10.25;;;;;;;;5032720;28;10117;-73
2022/06/12 03:09:52;;;;;;;;;9.50;9.50;;;;;;;;5031847;28;10025;-74
2022/06/12 03:12:20;;;;;;;;;7.00;4.75;;;;;;;;5031776;28;10005;-73
2022/06/12 03:14:52;;;;;;;;;8.25;8.25;;;;;;;;5036315;28;9968;-73
2022/06/12 03:17:20;;;;;;;;;17.50;12.00;;;;;;;;5037782;28;9913;-73
2022/06/12 03:19:54;;;;;;;;;14.00;14.00;;;;;;;;5029279;28;10063;-75
2022/06/12 03:22:28;;;;;;;;;8.75;8.75;;;;;;;;5033411;28;10114;-76
2022/06/12 03:25:04;;;;;;;;;9.50;9.50;;;;;;;;5033011;28;9974;-75
2022/06/12 03:27:40;;;;;;;;;14.00;10.50;;;;;;;;5029902;28;10045;-75
2022/06/12 03:30:13;;;;;;;;;8.00;8.00;;;;;;;;5033403;28;10950;-75
2022/06/12 03:32:51;;;;;;;;;8.00;8.00;;;;;;;;5033601;28;9946;-77
2022/06/12 03:35:26;;;;;;;;;9.00;9.00;;;;;;;;5031552;28;9805;-74
2022/06/12 03:37:59;;;;;;;;;8.50;7.25;;;;;;;;5033053;28;9958;-75
2022/06/12 03:40:33;;;;;;;;;10.00;8.50;;;;;;;;5034685;28;9906;-75
2022/06/12 03:43:13;;;;;;;;;6.75;6.75;;;;;;;;5031000;28;9874;-75
2022/06/12 03:45:47;;;;;;;;;7.75;7.75;;;;;;;;5032055;28;9931;-75
2022/06/12 03:48:24;;;;;;;;;9.00;9.00;;;;;;;;5030870;28;9979;-75
2022/06/12 03:50:59;;;;;;;;;8.75;8.75;;;;;;;;5027297;28;10108;-75
2022/06/12 03:53:34;;;;;;;;;6.75;6.00;;;;;;;;5034683;28;9914;-76
2022/06/12 03:58:56;;;;;;;;;7.00;7.00;;;;;;;;5033298;28;9735;-74
2022/06/12 04:01:25;;;;;;;;;13.00;8.75;;;;;;;;5031709;28;9739;-76
2022/06/12 04:03:56;;;;;;;;;6.75;6.75;;;;;;;;5030536;28;9973;-75
2022/06/12 04:06:25;;;;;;;;;6.50;5.50;;;;;;;;5033150;28;10087;-75
2022/06/12 04:08:56;;;;;;;;;7.00;4.00;;;;;;;;5033322;28;10056;-74
2022/06/12 04:11:26;;;;;;;;;5.75;4.50;;;;;;;;5029056;28;10416;-76
2022/06/12 04:13:54;;;;;;;;;3.75;3.75;;;;;;;;5027361;28;10652;-79
2022/06/12 04:16:25;;;;;;;;;3.50;2.50;;;;;;;;5029599;28;9980;-74
2022/06/12 04:18:55;;;;;;;;;4.00;4.00;;;;;;;;5028215;28;9788;-77
2022/06/12 04:21:31;;;;;;;;;3.00;3.00;;;;;;;;5029345;28;10079;-75
2022/06/12 04:24:08;;;;;;;;;3.00;2.00;;;;;;;;5027034;28;9875;-75
2022/06/12 04:26:38;;;;;;;;;4.00;4.00;;;;;;;;5032809;28;9781;-75
2022/06/12 04:29:18;;;;;;;;;5.00;3.50;;;;;;;;5030494;28;9794;-74
2022/06/12 04:31:48;;;;;;;;;2.50;1.25;;;;;;;;5025084;28;9711;-80
2022/06/12 04:34:19;;;;;;;;;3.00;1.75;;;;;;;;5035013;28;9707;-74
2022/06/12 04:36:49;;;;;;;;;2.00;2.00;;;;;;;;5028687;28;9950;-75
2022/06/12 04:39:19;;;;;;;;;1.75;1.75;;;;;;;;5029746;28;9769;-75
2022/06/12 04:41:46;;;;;;;;;3.00;3.00;;;;;;;;5031244;28;9823;-74
2022/06/12 04:44:14;;;;;;;;;1.75;1.75;;;;;;;;5030249;28;9833;-74
2022/06/12 04:46:45;;;;;;;;;1.75;1.75;;;;;;;;5029502;28;9659;-74
2022/06/12 04:49:17;;;;;;;;;2.00;2.00;;;;;;;;5032424;28;10305;-74
2022/06/12 04:51:44;;;;;;;;;3.00;3.00;;;;;;;;5031893;28;9581;-74
2022/06/12 04:54:12;;;;;;;;;2.00;2.00;;;;;;;;5028925;28;9492;-75
2022/06/12 04:56:40;;;;;;;;;4.50;1.50;;;;;;;;5030790;28;9514;-74
2022/06/12 04:59:08;;;;;;;;;1.00;1.00;;;;;;;;5027620;28;9499;-73
2022/06/12 05:01:36;;;;;;;;;1.67;1.67;;;;;;;;5031631;28;9448;-73
2022/06/12 05:04:05;;;;;;;;;2.50;2.00;;;;;;;;5033739;28;9483;-76
2022/06/12 05:06:35;;;;;;;;;3.00;3.00;;;;;;;;5029962;28;9484;-74
2022/06/12 05:09:03;;;;;;;;;0.33;0.33;;;;;;;;5030543;28;10297;-76
2022/06/12 05:11:30;;;;;;;;;2.00;2.00;;;;;;;;5033803;28;9408;-74
2022/06/12 05:13:57;;;;;;;;;1.00;1.00;;;;;;;;5031609;28;9368;-74
2022/06/12 05:16:31;;;;;;;;;2.00;2.00;;;;;;;;5032149;28;9262;-73
2022/06/12 05:18:59;;;;;;;;;3.00;3.00;;;;;;;;5037161;28;9352;-75
2022/06/12 05:21:28;;;;;;;;;3.00;3.00;;;;;;;;5032009;28;9418;-75
2022/06/12 05:23:57;;;;;;;;;5.00;3.00;;;;;;;;5038497;28;9437;-73
2022/06/12 05:26:25;;;;;;;;;2.67;2.67;;;;;;;;5035085;28;9340;-74
2022/06/12 05:28:53;;;;;;;;;3.75;3.75;;;;;;;;5028982;28;9429;-74
2022/06/12 05:31:20;;;;;;;;;2.75;2.75;;;;;;;;5028007;28;10204;-74
2022/06/12 05:33:47;;;;;;;;;4.00;4.00;;;;;;;;5037590;28;9504;-74
2022/06/12 05:36:17;;;;;;;;;5.00;3.25;;;;;;;;5033852;28;9405;-73
2022/06/12 05:38:45;;;;;;;;;2.75;2.00;;;;;;;;5039067;28;9569;-75
2022/06/12 05:41:16;;;;;;;;;2.00;2.00;;;;;;;;5032537;28;9430;-75
2022/06/12 05:43:43;;;;;;;;;3.00;3.00;;;;;;;;5034887;28;9568;-76
2022/06/12 05:46:12;;;;;;;;;3.25;3.25;;;;;;;;5034761;28;9504;-75
2022/06/12 05:48:40;;;;;;;;;2.00;2.00;;;;;;;;5041582;28;9408;-75
2022/06/12 05:51:08;;;;;;;;;7.33;3.00;;;;;;;;5039970;28;9274;-74
2022/06/12 05:53:37;;;;;;;;;3.00;3.00;;;;;;;;5037330;28;9425;-75
2022/06/12 05:56:07;;;;;;;;;4.67;3.67;;;;;;;;5033801;28;10197;-76
2022/06/12 05:58:36;;;;;;;;;3.67;3.67;;;;;;;;5035852;28;9488;-74
2022/06/12 06:01:04;;;;;;;;;3.33;2.33;;;;;;;;5030186;28;9377;-74
2022/06/12 06:03:32;;;;;;;;;3.00;3.00;;;;;;;;5036266;28;9378;-73
2022/06/12 06:05:59;;;;;;;;;3.67;3.00;;;;;;;;5037842;28;9319;-75
2022/06/12 06:08:28;;;;;;;;;3.00;3.00;;;;;;;;5039197;28;9327;-80
2022/06/12 06:10:56;;;;;;;;;4.00;4.00;;;;;;;;5039993;28;9209;-83
2022/06/12 06:13:23;;;;;;;;;2.00;2.00;;;;;;;;5037287;28;9061;-79
2022/06/12 06:15:52;;;;;;;;;3.50;3.00;;;;;;;;5034464;28;8952;-78
2022/06/12 06:18:20;;;;;;;;;1.00;1.00;;;;;;;;5030721;28;8849;-79
2022/06/12 06:20:48;;;;;;;;;3.33;3.33;;;;;;;;5032810;28;8882;-78
2022/06/12 06:23:16;;;;;;;;;2.00;2.00;;;;;;;;5036858;28;9002;-76
2022/06/12 06:25:44;;;;;;;;;1.00;1.00;;;;;;;;5039495;28;8863;-76
2022/06/12 06:28:13;;;;;;;;;4.25;3.00;;;;;;;;5034756;28;8898;-77
2022/06/12 06:30:40;;;;;;;;;4.75;3.00;;;;;;;;5033060;28;8799;-78
2022/06/12 06:33:10;;;;;;;;;2.50;2.25;;;;;;;;5036493;28;8879;-79
2022/06/12 06:35:38;;;;;;;;;3.00;3.00;;;;;;;;5038322;28;8843;-78
2022/06/12 06:38:06;;;;;;;;;3.25;3.00;;;;;;;;5031807;28;8870;-74
2022/06/12 06:40:34;;;;;;;;;6.00;4.00;;;;;;;;5035198;28;8883;-75
2022/06/12 06:43:02;;;;;;;;;9.00;5.00;;;;;;;;5032816;28;8866;-75
2022/06/12 06:48:17;;;;;;;;;3.50;3.50;;;;;;;;5032776;28;9723;-75
2022/06/12 06:50:44;;;;;;;;;4.00;4.00;;;;;;;;5036816;28;8909;-75
2022/06/12 06:53:12;;;;;;;;;6.00;3.25;;;;;;;;5034109;28;8871;-76
2022/06/12 06:55:40;;;;;;;;;4.75;3.25;;;;;;;;5036020;28;8914;-75
2022/06/12 06:58:10;;;;;;;;;2.00;2.00;;;;;;;;5036023;28;8885;-75
2022/06/12 07:00:39;;;;;;;;;2.00;2.00;;;;;;;;5033332;28;8880;-78
2022/06/12 07:03:07;;;;;;;;;11.50;8.00;;;;;;;;5035628;28;8981;-75
2022/06/12 07:05:36;;;;;;;;;4.50;4.00;;;;;;;;5037002;28;8851;-75
2022/06/12 07:08:05;;;;;;;;;9.50;5.75;;;;;;;;5030781;28;9671;-75
2022/06/12 07:10:34;;;;;;;;;6.00;5.50;;;;;;;;5033505;28;8889;-75
2022/06/12 07:13:02;;;;;;;;;6.00;5.00;;;;;;;;5036904;28;9663;-75
2022/06/12 07:15:31;;;;;;;;;6.00;4.75;;;;;;;;5040784;28;8870;-75
2022/06/12 07:17:59;;;;;;;;;4.00;4.00;;;;;;;;5036274;28;8894;-75
2022/06/12 07:20:30;;;;;;;;;9.50;5.50;;;;;;;;5039997;28;8972;-75
2022/06/12 07:22:59;;;;;;;;;5.50;4.50;;;;;;;;5039624;28;8859;-76
2022/06/12 07:25:26;;;;;;;;;11.00;7.00;;;;;;;;5036729;28;8993;-70
2022/06/12 07:27:54;;;;;;;;;6.00;6.00;;;;;;;;5039791;28;8854;-69
2022/06/12 07:30:22;;;;;;;;;5.50;5.50;;;;;;;;5033831;28;8874;-70
2022/06/12 07:32:51;;;;;;;;;6.00;6.00;;;;;;;;5035995;28;8859;-69
2022/06/12 07:35:19;;;;;;;;;5.25;4.00;;;;;;;;5037678;28;8867;-70
2022/06/12 07:37:47;;;;;;;;;8.25;6.25;;;;;;;;5038482;28;8883;-68
2022/06/12 07:40:20;;;;;;;;;6.00;6.00;;;;;;;;5040372;28;8866;-68
2022/06/12 07:42:47;;;;;;;;;5.75;5.75;;;;;;;;5035055;28;8904;-70
2022/06/12 07:45:15;;;;;;;;;5.75;5.75;;;;;;;;5038435;28;8855;-69
2022/06/12 07:47:43;;;;;;;;;9.25;7.00;;;;;;;;5035864;28;8882;-71
2022/06/12 07:50:11;;;;;;;;;12.00;6.50;;;;;;;;5038477;28;8903;-71
2022/06/12 07:52:39;;;;;;;;;7.00;5.00;;;;;;;;5033083;28;8878;-70
2022/06/12 07:55:09;;;;;;;;;7.75;7.25;;;;;;;;5036491;28;8875;-72
2022/06/12 07:57:38;;;;;;;;;7.50;6.50;;;;;;;;5028582;28;8886;-70
2022/06/12 08:00:07;;;;;;;;;5.25;5.25;;;;;;;;5032378;28;8889;-70
2022/06/12 08:02:35;;;;;;;;;7.75;7.00;;;;;;;;5031042;28;8866;-71
2022/06/12 08:05:02;;;;;;;;;8.00;7.25;;;;;;;;5036313;28;8855;-73
2022/06/12 08:07:30;;;;;;;;;6.25;6.25;;;;;;;;5036037;28;8887;-71
2022/06/12 08:09:57;;;;;;;;;9.75;8.25;;;;;;;;5031193;28;8869;-70
2022/06/12 08:12:25;;;;;;;;;6.75;6.75;;;;;;;;5031073;28;8890;-69
2022/06/12 08:14:54;;;;;;;;;6.75;6.75;;;;;;;;5033249;28;8863;-70
2022/06/12 08:17:22;;;;;;;;;13.75;9.50;;;;;;;;5034524;28;8879;-69
2022/06/12 08:22:34;;;;;;;;;9.50;5.25;;;;;;;;5030646;28;10211;-70
2022/06/12 08:25:01;;;;;;;;;8.00;6.00;;;;;;;;5033784;28;8866;-71
2022/06/12 08:27:29;;;;;;;;;5.25;5.25;;;;;;;;5035759;28;8863;-70
2022/06/12 08:29:57;;;;;;;;;6.00;6.00;;;;;;;;5037132;28;8855;-71
2022/06/12 08:32:25;;;;;;;;;7.00;5.25;;;;;;;;5035649;28;8803;-70
2022/06/12 08:34:55;;;;;;;;;8.25;6.25;;;;;;;;5035473;28;8886;-69
2022/06/12 08:37:24;;;;;;;;;9.25;8.50;;;;;;;;5037238;28;8861;-70
2022/06/12 08:39:52;;;;;;;;;14.75;9.25;;;;;;;;5036621;28;8858;-72
2022/06/12 08:42:24;;;;;;;;;11.00;9.00;;;;;;;;5033880;28;8869;-72
2022/06/12 08:44:54;;;;;;;;;9.00;7.25;;;;;;;;5030566;28;8859;-72
2022/06/12 08:47:28;;;;;;;;;7.75;6.75;;;;;;;;5034962;28;8905;-71
2022/06/12 08:50:01;;;;;;;;;7.40;7.40;;;;;;;;5036408;28;8859;-71
2022/06/12 08:52:33;;;;;;;;;7.75;7.50;;;;;;;;5039069;28;8871;-71
2022/06/12 08:55:06;;;;;;;;;10.50;8.75;;;;;;;;5040772;28;8873;-71
2022/06/12 08:57:38;;;;;;;;;9.00;7.00;;;;;;;;5039118;28;9200;-72
2022/06/12 09:00:09;;;;;;;;;10.00;8.25;;;;;;;;5042238;28;8877;-72
2022/06/12 09:02:41;;;;;;;;;7.75;7.75;;;;;;;;5040937;28;9679;-71
2022/06/12 09:05:12;;;;;;;;;7.50;7.00;;;;;;;;5043158;28;8878;-72
2022/06/12 09:07:47;;;;;;;;;12.25;8.75;;;;;;;;5037841;28;8873;-71
2022/06/12 09:10:23;;;;;;;;;6.80;6.80;;;;;;;;5042320;28;9097;-71
2022/06/12 09:12:55;;;;;;;;;9.00;8.80;;;;;;;;5036344;28;8881;-71
2022/06/12 09:15:35;;;;;;;;;9.40;7.00;;;;;;;;5040111;28;8879;-71
2022/06/12 09:18:16;;;;;;;;;7.80;7.80;;;;;;;;5040088;28;8886;-71
2022/06/12 09:20:51;;;;;;;;;12.20;7.00;;;;;;;;5034620;28;8887;-70
2022/06/12 09:23:28;;;;;;;;;9.40;7.20;;;;;;;;5041605;28;8891;-71
2022/06/12 09:26:06;;;;;;;;;10.20;8.20;;;;;;;;5037611;28;9001;-70
2022/06/12 09:28:40;;;;;;;;;10.20;10.20;;;;;;;;5026261;28;8904;-71
2022/06/12 09:31:11;;;;;;;;;7.80;7.60;;;;;;;;5033221;28;9607;-72
2022/06/12 09:33:46;;;;;;;;;7.00;7.00;;;;;;;;5037810;28;8974;-74
2022/06/12 09:36:21;;;;;;;;;7.20;7.00;;;;;;;;5040120;28;8887;-71
2022/06/12 09:39:03;;;;;;;;;7.00;7.00;;;;;;;;5040406;28;8883;-70
2022/06/12 09:41:41;;;;;;;;;5.00;5.00;;;;;;;;5037210;28;9004;-71
2022/06/12 09:44:17;;;;;;;;;4.60;4.60;;;;;;;;5037031;28;8874;-74
2022/06/12 09:46:55;;;;;;;;;4.60;4.20;;;;;;;;5039180;28;8851;-72
2022/06/12 09:49:38;;;;;;;;;7.20;6.20;;;;;;;;5037700;28;8977;-73
2022/06/12 09:52:54;;;;;;;;;7.40;6.60;;;;;;;;5033843;28;8874;-73
2022/06/12 09:55:25;;;;;;;;;10.00;7.00;;;;;;;;5017113;28;8859;-71
2022/06/12 09:57:59;;;;;;;;;4.80;4.80;;;;;;;;5037437;28;8874;-72
2022/06/12 10:00:33;;;;;;;;;6.60;5.60;;;;;;;;5038185;28;8764;-72
2022/06/12 10:03:06;;;;;;;;;9.20;6.00;;;;;;;;5032153;28;8863;-72
2022/06/12 10:05:40;;;;;;;;;6.80;6.80;;;;;;;;5039802;28;8887;-71
2022/06/12 10:08:12;;;;;;;;;7.60;6.00;;;;;;;;5035744;28;8896;-72
2022/06/12 10:10:45;;;;;;;;;4.20;4.00;;;;;;;;5036479;28;8879;-73
2022/06/12 10:13:16;;;;;;;;;5.20;4.60;;;;;;;;5040911;28;8863;-74
2022/06/12 10:15:48;;;;;;;;;5.40;5.40;;;;;;;;5030565;28;8863;-75
2022/06/12 10:18:19;;;;;;;;;13.60;12.00;;;;;;;;5037337;28;9623;-74
2022/06/12 10:20:51;;;;;;;;;9.20;6.40;;;;;;;;5034450;28;8965;-73
2022/06/12 10:23:18;;;;;;;;;6.00;6.00;;;;;;;;5034296;28;8887;-72
2022/06/12 10:25:51;;;;;;;;;575.00;441.75;;;;;;;;5038761;28;8851;-73
2022/06/12 10:28:26;;;;;;;;;4.80;4.80;;;;;;;;5039643;28;8904;-73
2022/06/12 10:31:18;;;;;;;;;4.00;4.00;;;;;;;;5036140;28;8780;-73
2022/06/12 10:33:50;;;;;;;;;5.20;5.00;;;;;;;;5033053;28;8905;-73
2022/06/12 10:36:22;;;;;;;;;3.00;3.00;;;;;;;;5035982;28;9231;-75
2022/06/12 10:38:50;;;;;;;;;6.80;4.00;;;;;;;;5040436;28;8901;-73
2022/06/12 10:41:25;;;;;;;;;3.20;3.20;;;;;;;;5036217;28;8897;-73
2022/06/12 10:43:56;;;;;;;;;3.80;3.00;;;;;;;;5035793;28;8882;-73
2022/06/12 10:46:27;;;;;;;;;2.60;2.60;;;;;;;;5037109;28;8862;-73
2022/06/12 10:49:01;;;;;;;;;5.00;5.00;;;;;;;;5039578;28;8905;-74
2022/06/12 10:51:36;;;;;;;;;3.20;3.20;;;;;;;;5030482;28;8993;-73
2022/06/12 10:54:12;;;;;;;;;3.00;2.20;;;;;;;;5032713;28;8863;-74
2022/06/12 10:56:48;;;;;;;;;1.60;1.60;;;;;;;;5036926;28;9664;-72
2022/06/12 10:59:30;;;;;;;;;2.80;2.80;;;;;;;;5034099;28;8897;-74
2022/06/12 11:02:25;;;;;;;;;1.00;1.00;;;;;;;;5036993;28;8835;-74
2022/06/12 11:05:03;;;;;;;;;2.00;2.00;;;;;;;;5032910;28;8877;-74
2022/06/12 11:07:38;;;;;;;;;1.60;1.60;;;;;;;;5033956;28;9526;-74
2022/06/12 11:10:17;;;;;;;;;5.00;3.00;;;;;;;;5035537;28;8879;-75
2022/06/12 11:12:56;;;;;;;;;3.00;3.00;;;;;;;;5035940;28;8883;-74
2022/06/12 11:15:33;;;;;;;;;1.00;1.00;;;;;;;;5038716;28;9018;-74
2022/06/12 11:18:08;;;;;;;;;0.40;0.40;;;;;;;;5033817;28;8908;-74
2022/06/12 11:20:44;;;;;;;;;3.00;3.00;;;;;;;;5034944;28;8881;-74
2022/06/12 11:23:26;;;;;;;;;3.00;3.00;;;;;;;;5036785;28;8879;-72
2022/06/12 11:26:05;;;;;;;;;2.00;2.00;;;;;;;;5033676;28;8873;-73
2022/06/12 11:28:43;;;;;;;;;2.00;2.00;;;;;;;;5035943;28;8877;-74
2022/06/12 11:31:23;;;;;;;;;3.60;2.00;;;;;;;;5034369;28;8823;-72
2022/06/12 11:33:59;;;;;;;;;4.00;3.00;;;;;;;;5031574;28;8878;-73
2022/06/12 11:36:35;;;;;;;;;3.00;3.00;;;;;;;;5030607;28;8936;-74
2022/06/12 11:39:25;;;;;;;;;1.20;1.20;;;;;;;;5033834;28;8924;-74
2022/06/12 11:42:25;;;;;;;;;2.40;2.40;;;;;;;;5036211;28;8897;-72
2022/06/12 11:45:03;;;;;;;;;3.20;3.20;;;;;;;;5032073;28;8863;-72
2022/06/12 11:47:50;;;;;;;;;2.40;2.40;;;;;;;;5026286;28;9712;-74
2022/06/12 11:50:26;;;;;;;;;2.00;2.00;;;;;;;;5034151;28;8870;-74
2022/06/12 11:53:01;;;;;;;;;3.60;2.20;;;;;;;;5034356;28;8885;-72
2022/06/12 11:55:37;;;;;;;;;4.20;1.60;;;;;;;;5039613;28;9665;-72
2022/06/12 11:58:24;;;;;;;;;2.60;2.60;;;;;;;;5036322;28;8871;-72
2022/06/12 12:00:58;;;;;;;;;1.00;1.00;;;;;;;;5030850;28;8861;-72
2022/06/12 12:03:58;;;;;;;;;1.60;1.60;;;;;;;;5035181;28;8851;-71
2022/06/12 12:06:41;;;;;;;;;6.80;6.80;;;;;;;;5036672;28;8845;-72
2022/06/12 12:09:18;;;;;;;;;7.80;6.80;;;;;;;;5034128;28;8881;-73
2022/06/12 12:11:49;;;;;;;;;2.00;2.00;;;;;;;;5034333;28;8862;-73
2022/06/12 12:14:25;;;;;;;;;4.60;4.60;;;;;;;;5035072;28;8867;-73
2022/06/12 12:16:58;;;;;;;;;3.00;3.00;;;;;;;;5034366;28;8895;-73
2022/06/12 12:19:28;;;;;;;;;2.40;2.40;;;;;;;;5035496;28;8993;-72
2022/06/12 12:21:59;;;;;;;;;2.00;2.00;;;;;;;;5030865;28;8863;-73
2022/06/12 12:24:29;;;;;;;;;2.80;1.40;;;;;;;;5036157;28;8879;-73
2022/06/12 12:27:03;;;;;;;;;2.60;2.60;;;;;;;;5038991;28;8867;-75
2022/06/12 12:29:34;;;;;;;;;1.60;1.00;;;;;;;;5039008;28;8874;-73
2022/06/12 12:32:04;;;;;;;;;3.80;2.20;;;;;;;;5039439;28;9878;-73
2022/06/12 12:34:31;;;;;;;;;3.00;2.00;;;;;;;;5041029;28;8866;-73
2022/06/12 12:42:33;;;;;;;;;2.20;2.20;;;;;;;;5038675;28;9434;-74
2022/06/12 12:45:14;;;;;;;;;2.60;2.60;;;;;;;;5035479;28;8875;-73
2022/06/12 12:47:41;;;;;;;;;2.20;2.20;;;;;;;;5038523;28;8865;-73
2022/06/12 12:50:13;;;;;;;;;2.80;2.80;;;;;;;;5038080;28;9988;-72
2022/06/12 12:52:44;;;;;;;;;12.20;10.00;;;;;;;;5034776;28;8867;-73
2022/06/12 12:55:22;;;;;;;;;4.60;4.60;;;;;;;;5040243;28;8938;-73
2022/06/12 12:57:51;;;;;;;;;3.40;3.40;;;;;;;;5036159;28;8887;-73
2022/06/12 13:00:26;;;;;;;;;2.00;2.00;;;;;;;;5036552;28;8869;-73
2022/06/12 13:02:57;;;;;;;;;3.20;1.40;;;;;;;;5035138;28;8873;-73
2022/06/12 13:05:27;;;;;;;;;4.40;4.40;;;;;;;;5041039;28;8882;-74
2022/06/12 13:08:16;;;;;;;;;4.40;2.40;;;;;;;;5039348;28;8879;-73
2022/06/12 13:11:04;;;;;;;;;1.60;1.60;;;;;;;;5037258;28;8855;-73
2022/06/12 13:13:51;;;;;;;;;2.00;2.00;;;;;;;;5038388;28;8855;-73
2022/06/12 13:16:27;;;;;;;;;1.00;1.00;;;;;;;;5040343;28;8854;-74
2022/06/12 13:19:10;;;;;;;;;1.80;1.80;;;;;;;;5038659;28;8851;-73
2022/06/12 13:21:44;;;;;;;;;1.00;1.00;;;;;;;;5034606;28;8997;-73
2022/06/12 13:24:27;;;;;;;;;1.80;1.80;;;;;;;;5041000;28;8847;-74
2022/06/12 13:26:56;;;;;;;;;1.20;1.20;;;;;;;;5033310;28;8867;-75
2022/06/12 13:29:26;;;;;;;;;3.00;0.80;;;;;;;;5033956;28;8849;-75
2022/06/12 13:31:58;;;;;;;;;2.20;0.20;;;;;;;;5035855;28;8866;-74
2022/06/12 13:34:27;;;;;;;;;1.40;1.00;;;;;;;;5037579;28;8901;-75
2022/06/12 13:36:58;;;;;;;;;1.80;1.80;;;;;;;;5037223;28;8882;-75
2022/06/12 13:39:30;;;;;;;;;1.40;1.40;;;;;;;;5038461;28;8865;-75
2022/06/12 13:42:01;;;;;;;;;1.80;1.80;;;;;;;;5031252;28;8875;-74
2022/06/12 13:44:32;;;;;;;;;0.00;0.00;;;;;;;;5033868;28;8854;-73
2022/06/12 13:47:15;;;;;;;;;0.00;0.00;;;;;;;;5040075;28;8893;-73
2022/06/12 13:49:45;;;;;;;;;2.20;1.00;;;;;;;;5036668;28;8901;-74
2022/06/12 13:52:22;;;;;;;;;0.00;0.00;;;;;;;;5037710;28;8863;-75
2022/06/12 13:54:49;;;;;;;;;1.00;1.00;;;;;;;;5039500;28;8867;-73
2022/06/12 13:57:25;;;;;;;;;0.80;0.80;;;;;;;;5038226;28;8875;-73
2022/06/12 13:59:53;;;;;;;;;1.20;1.20;;;;;;;;5038255;28;8841;-70
2022/06/12 14:02:24;;;;;;;;;0.00;0.00;;;;;;;;5034235;28;8819;-73
2022/06/12 14:04:58;;;;;;;;;0.00;0.00;;;;;;;;5036383;28;8899;-73
2022/06/12 14:07:30;;;;;;;;;0.00;0.00;;;;;;;;5040254;28;8859;-73
2022/06/12 14:10:00;;;;;;;;;0.60;0.60;;;;;;;;5041671;28;8919;-72
2022/06/12 14:12:30;;;;;;;;;2.00;0.80;;;;;;;;5030619;28;8894;-74
2022/06/12 14:14:58;;;;;;;;;2.60;0.00;;;;;;;;5036359;28;9551;-74
2022/06/12 14:17:29;;;;;;;;;2.60;1.00;;;;;;;;5037736;28;8847;-74
2022/06/12 14:19:59;;;;;;;;;0.00;0.00;;;;;;;;5038125;28;8866;-75
2022/06/12 14:22:28;;;;;;;;;1.00;0.20;;;;;;;;5038343;28;8900;-75
2022/06/12 14:25:01;;;;;;;;;0.00;0.00;;;;;;;;5039872;28;10039;-74
2022/06/12 14:27:39;;;;;;;;;1.80;1.80;;;;;;;;5040430;28;8901;-74
2022/06/12 14:30:33;;;;;;;;;2.00;0.00;;;;;;;;5034807;28;8906;-73
2022/06/12 14:33:01;;;;;;;;;1.80;0.00;;;;;;;;5037959;28;8846;-73
2022/06/12 14:35:28;;;;;;;;;0.40;0.40;;;;;;;;5046060;28;9748;-73
2022/06/12 14:37:56;;;;;;;;;1.20;0.40;;;;;;;;5043067;28;8878;-76
2022/06/12 14:40:35;;;;;;;;;0.00;0.00;;;;;;;;5043270;28;8878;-73
2022/06/12 14:43:17;;;;;;;;;1.20;0.20;;;;;;;;5045452;28;8953;-74
2022/06/12 14:45:48;;;;;;;;;0.00;0.00;;;;;;;;5040495;28;8889;-75
2022/06/12 14:48:18;;;;;;;;;1.00;1.00;;;;;;;;5037256;28;8894;-74
2022/06/12 14:50:45;;;;;;;;;0.80;0.80;;;;;;;;5039502;28;8912;-74
2022/06/12 14:53:13;;;;;;;;;2.00;1.00;;;;;;;;5041216;28;8894;-74
2022/06/12 14:55:42;;;;;;;;;0.40;0.40;;;;;;;;5020045;28;8851;-75
2022/06/12 14:58:16;;;;;;;;;3.60;0.60;;;;;;;;5040712;28;8874;-75
2022/06/12 15:00:45;;;;;;;;;1.00;1.00;;;;;;;;5038965;28;8877;-74
2022/06/12 15:03:15;;;;;;;;;1.40;1.40;;;;;;;;5039939;28;8867;-81
2022/06/12 15:05:43;;;;;;;;;0.00;0.00;;;;;;;;5033278;28;8878;-74
2022/06/12 15:08:11;;;;;;;;;0.80;0.80;;;;;;;;5032357;28;8889;-73
2022/06/12 15:10:41;;;;;;;;;0.60;0.00;;;;;;;;5038002;28;8909;-74
2022/06/12 15:13:12;;;;;;;;;2.20;0.60;;;;;;;;5034279;28;8955;-75
2022/06/12 15:15:39;;;;;;;;;2.40;1.00;;;;;;;;5038978;28;8916;-74
2022/06/12 15:18:09;;;;;;;;;1.80;1.00;;;;;;;;5034299;28;8885;-74
2022/06/12 15:20:38;;;;;;;;;1.60;0.00;;;;;;;;5040402;28;8859;-74
2022/06/12 15:23:06;;;;;;;;;1.20;1.20;;;;;;;;5031599;28;8977;-73
2022/06/12 15:31:10;;;;;;;;;1.80;1.00;;;;;;;;5033831;28;8803;-73
2022/06/12 15:33:40;;;;;;;;;1.60;1.60;;;;;;;;5035927;28;8874;-73
2022/06/12 15:36:09;;;;;;;;;1.00;1.00;;;;;;;;5032871;28;8909;-73
2022/06/12 15:38:37;;;;;;;;;0.00;0.00;;;;;;;;5032960;28;8890;-76
2022/06/12 15:41:05;;;;;;;;;1.00;1.00;;;;;;;;5037093;28;8874;-74
2022/06/12 15:43:33;;;;;;;;;0.60;0.60;;;;;;;;5030473;28;8993;-74
2022/06/12 15:46:01;;;;;;;;;0.20;0.20;;;;;;;;5034742;28;8891;-74
2022/06/12 15:48:29;;;;;;;;;1.00;1.00;;;;;;;;5030211;28;8879;-73
2022/06/12 15:50:58;;;;;;;;;1.00;1.00;;;;;;;;5034206;28;8861;-74